KMIW

Marshalltown Municipal Airport

Marshalltown, Iowa, USA
METAR KMIW 201611Z AUTO 09020G30KT 2SM RA BR SCT008 BKN012 OVC037 21/21 A2971 RMK AO2 PK WND 10035/1601 P0005 T02060206
Observed Flight Rules
Aug-20 @ 16:11 UTC (15 minutes ago) Instrument Flight Rules
Wind Visibility Clouds Conditions
90° at 20 knots
 Gusting to 30 knots
2 miles
  • Scattered at 800' AGL
  • Broken at 1,200' AGL
  • Overcast at 3,700' AGL
  • Rain
  • Mist
Temperatures Readings Precipitation
Current 21°C / 70°F
Dewpoint 21°C / 70°F
Humidity 100%
Altimeter 29.71" Hg
Pressure 1006 hPa
Elevation 296
Current Rain 0.05
METAR KMIW 201611Z AUTO 09020G30KT 2SM RA BR SCT008 BKN012 OVC037 21/21 A2971 RMK AO2 PK WND 10035/1601 P0005 T02060206
Observed Flight Rules
Aug-20 @ 16:11 UTC
(15 minutes ago)
IFR
Wind Visibility
90° at 20 knots
 Gusting to 30 knots
2 miles
Clouds
  • Scattered at 800' AGL
  • Broken at 1,200' AGL
  • Overcast at 3,700' AGL
Conditions
  • Rain
  • Mist
Temperature Dewpoint
21°C / 70°F 21°C / 70°F
Humidity Altimeter Pressure
100% 29.71" Hg 1006 hPa
Current Rain
0.05